Time;durP1;ratioP1;P1;durP2;ratioP2;P2;SDS_P1;SDS_P2;PMS_P1;PMS_P2;Temp;Humidity;BMP_temperature;BMP_pressure;BME280_temperature;BME280_humidity;BME280_pressure;Samples;Min_cycle;Max_cycle;Signal;HPM_P1;HPM_P2
2023/11/18 00:00:01;;;;;;;3.87;0.60;;;;;;;9.59;100.00;100916.91;2105780;28;20200;-71
2023/11/18 00:01:03;;;;;;;0.87;0.60;;;;;;;9.54;100.00;100914.63;2112679;28;20424;-71
2023/11/18 00:02:03;;;;;;;0.50;0.50;;;;;;;9.45;100.00;100917.13;2114380;28;20184;-71
2023/11/18 00:03:05;;;;;;;0.60;0.50;;;;;;;9.50;100.00;100916.66;2114078;28;20435;-71
2023/11/18 00:04:09;;;;;;;0.60;0.50;;;;;;;9.55;100.00;100924.47;2113103;28;20269;-71
2023/11/18 00:05:13;;;;;;;0.50;0.50;;;;;;;9.61;100.00;100915.28;2113996;28;20432;-71
2023/11/18 00:06:14;;;;;;;1.17;0.60;;;;;;;9.58;100.00;100910.59;2114105;28;20751;-71
2023/11/18 00:07:14;;;;;;;0.63;0.40;;;;;;;9.61;100.00;100920.81;2113258;28;20434;-71
2023/11/18 00:08:15;;;;;;;0.53;0.50;;;;;;;9.58;100.00;100924.41;2105867;28;20186;-71
2023/11/18 00:09:15;;;;;;;1.50;0.60;;;;;;;9.60;100.00;100916.50;2113289;28;20243;-71
2023/11/18 00:10:16;;;;;;;0.50;0.50;;;;;;;9.60;100.00;100926.78;2107183;28;20246;-71
2023/11/18 00:11:18;;;;;;;1.33;0.50;;;;;;;9.08;100.00;100848.13;2111329;28;20238;-71
2023/11/18 00:12:19;;;;;;;0.50;0.50;;;;;;;9.61;100.00;100936.63;2109703;28;20438;-71
2023/11/18 00:13:19;;;;;;;0.60;0.40;;;;;;;8.73;100.00;100794.13;2108330;28;20415;-71
2023/11/18 00:14:20;;;;;;;0.70;0.60;;;;;;;9.35;100.00;100895.94;2112699;28;20683;-71
2023/11/18 00:15:21;;;;;;;0.70;0.50;;;;;;;9.57;100.00;100919.28;2105667;28;20174;-71
2023/11/18 00:16:22;;;;;;;0.97;0.50;;;;;;;9.51;100.00;100915.44;2113878;28;20717;-71
2023/11/18 00:17:22;;;;;;;0.50;0.50;;;;;;;9.22;100.00;100875.59;2107266;28;20178;-71
2023/11/18 00:18:23;;;;;;;0.50;0.40;;;;;;;9.47;100.00;100904.44;2105666;28;20652;-71
2023/11/18 00:19:23;;;;;;;0.57;0.50;;;;;;;9.39;100.00;100911.25;2105469;28;20267;-71
2023/11/18 00:20:24;;;;;;;1.70;0.57;;;;;;;9.37;100.00;100910.91;2105680;28;20197;-71
2023/11/18 00:21:24;;;;;;;1.63;0.57;;;;;;;9.29;100.00;100903.94;2106587;28;20171;-71
2023/11/18 00:22:27;;;;;;;0.50;0.50;;;;;;;9.27;100.00;100916.59;2112913;28;20563;-71
2023/11/18 00:23:29;;;;;;;0.47;0.40;;;;;;;9.22;100.00;100912.31;2105439;28;20549;-71
2023/11/18 00:24:29;;;;;;;0.40;0.40;;;;;;;9.16;100.00;100902.91;2113122;28;20420;-72
2023/11/18 00:25:30;;;;;;;0.47;0.43;;;;;;;9.13;100.00;100912.03;2113695;28;20522;-71
2023/11/18 00:26:30;;;;;;;0.53;0.40;;;;;;;9.10;100.00;100918.41;2108275;28;20234;-71
2023/11/18 00:27:31;;;;;;;0.50;0.50;;;;;;;9.08;100.00;100906.94;2109437;28;20678;-71
2023/11/18 00:28:32;;;;;;;0.83;0.60;;;;;;;9.08;100.00;100912.47;2113942;28;20225;-71
2023/11/18 00:29:38;;;;;;;0.50;0.47;;;;;;;9.04;100.00;100903.47;2113831;28;20215;-71
2023/11/18 00:30:38;;;;;;;0.30;0.30;;;;;;;9.02;100.00;100907.84;2112681;28;20508;-71
2023/11/18 00:31:39;;;;;;;1.17;0.47;;;;;;;8.70;100.00;100849.41;2113624;28;20473;-71
2023/11/18 00:32:39;;;;;;;0.50;0.40;;;;;;;9.00;100.00;100894.44;2105079;28;20188;-71
2023/11/18 00:33:40;;;;;;;0.37;0.30;;;;;;;9.01;100.00;100890.47;2104856;28;20181;-71
2023/11/18 00:34:40;;;;;;;0.77;0.30;;;;;;;9.00;100.00;100905.50;2111237;28;20188;-71
2023/11/18 00:35:41;;;;;;;0.77;0.40;;;;;;;8.94;100.00;100903.59;2113892;28;20179;-71
2023/11/18 00:36:41;;;;;;;0.57;0.37;;;;;;;8.81;100.00;100895.06;2113971;28;20176;-71
2023/11/18 00:37:42;;;;;;;1.07;0.40;;;;;;;8.89;100.00;100893.81;2112698;28;20239;-71
2023/11/18 00:38:42;;;;;;;0.50;0.50;;;;;;;8.88;100.00;100908.03;2105477;28;20200;-71
2023/11/18 00:39:43;;;;;;;0.47;0.40;;;;;;;8.85;100.00;100904.09;2122587;27;20191;-71
2023/11/18 00:40:43;;;;;;;0.73;0.50;;;;;;;8.79;100.00;100907.72;2115024;27;20684;-71
2023/11/18 00:41:44;;;;;;;0.80;0.50;;;;;;;8.56;100.00;100877.25;2119968;28;20234;-71
2023/11/18 00:42:47;;;;;;;0.50;0.40;;;;;;;8.73;100.00;100896.38;2117518;27;20678;-71
2023/11/18 00:43:48;;;;;;;0.83;0.43;;;;;;;8.74;100.00;100903.47;2112700;28;20184;-71
2023/11/18 00:44:48;;;;;;;0.40;0.30;;;;;;;8.37;100.00;100853.00;2110540;28;20967;-71
2023/11/18 00:45:49;;;;;;;0.57;0.40;;;;;;;8.62;100.00;100890.16;2098605;28;20196;-71
2023/11/18 00:46:49;;;;;;;0.30;0.30;;;;;;;8.63;100.00;100922.16;2121960;28;20187;-71
2023/11/18 00:47:50;;;;;;;0.47;0.40;;;;;;;8.28;100.00;100849.94;2113210;28;20188;-71
2023/11/18 00:48:50;;;;;;;0.30;0.30;;;;;;;8.53;100.00;100898.19;2113183;28;20198;-71
2023/11/18 00:49:52;;;;;;;0.30;0.30;;;;;;;8.55;100.00;100895.78;2107923;28;20211;-71
2023/11/18 00:50:53;;;;;;;0.40;0.40;;;;;;;8.52;100.00;100893.06;2110181;28;20173;-71
2023/11/18 00:51:53;;;;;;;0.30;0.30;;;;;;;8.50;100.00;100890.72;2111104;28;20445;-71
2023/11/18 00:52:54;;;;;;;0.30;0.30;;;;;;;8.46;100.00;100880.91;2108719;28;20180;-71
2023/11/18 00:53:54;;;;;;;0.93;0.40;;;;;;;8.54;100.00;100885.94;2121408;27;20209;-71
2023/11/18 00:54:55;;;;;;;0.33;0.30;;;;;;;7.84;100.00;100803.06;2113011;28;20181;-71
2023/11/18 00:55:55;;;;;;;0.40;0.33;;;;;;;8.49;100.00;100896.63;2120117;28;20710;-71
2023/11/18 00:56:56;;;;;;;0.77;0.40;;;;;;;8.45;100.00;100890.41;2116785;28;20264;-71
2023/11/18 00:57:56;;;;;;;0.40;0.40;;;;;;;8.50;100.00;100904.53;2118014;28;20579;-71
2023/11/18 00:58:56;;;;;;;0.73;0.50;;;;;;;8.46;100.00;100889.19;2119505;27;20827;-71
2023/11/18 00:59:58;;;;;;;0.60;0.47;;;;;;;8.43;100.00;100892.75;2112544;28;20173;-71
2023/11/18 01:00:58;;;;;;;0.20;0.20;;;;;;;7.85;100.00;100796.34;2105480;28;20580;-71
2023/11/18 01:01:59;;;;;;;0.30;0.30;;;;;;;8.33;100.00;100888.94;2105757;28;20180;-71
2023/11/18 01:02:59;;;;;;;0.30;0.30;;;;;;;7.81;100.00;100832.25;2105467;28;20232;-71
2023/11/18 01:04:00;;;;;;;0.70;0.40;;;;;;;8.28;100.00;100885.81;2104962;28;20568;-70
2023/11/18 01:05:00;;;;;;;1.70;0.30;;;;;;;8.26;100.00;100888.97;2105179;28;20193;-71
2023/11/18 01:06:01;;;;;;;0.60;0.33;;;;;;;8.21;100.00;100885.91;2105623;28;20190;-71
2023/11/18 01:07:02;;;;;;;0.53;0.27;;;;;;;8.24;100.00;100890.59;2108386;28;20189;-71
2023/11/18 01:08:03;;;;;;;0.43;0.20;;;;;;;7.48;100.00;100777.78;2116824;27;20193;-71
2023/11/18 01:09:03;;;;;;;0.67;0.30;;;;;;;8.16;100.00;100886.31;2124216;27;20182;-71
2023/11/18 01:10:06;;;;;;;0.40;0.33;;;;;;;8.10;100.00;100877.69;2115091;27;20196;-71
2023/11/18 01:11:06;;;;;;;0.30;0.30;;;;;;;8.03;100.00;100885.25;2115525;28;20213;-70
2023/11/18 01:12:09;;;;;;;0.93;0.20;;;;;;;8.08;100.00;100887.56;2115454;28;20180;-70
2023/11/18 01:13:10;;;;;;;0.32;0.30;;;;;;;8.03;100.00;100893.53;2115995;27;20193;-71
2023/11/18 01:14:11;;;;;;;0.23;0.23;;;;;;;7.98;100.00;100888.44;2114807;28;20186;-71
2023/11/18 01:15:12;;;;;;;0.38;0.35;;;;;;;8.02;100.00;100880.94;2112864;28;20259;-71
2023/11/18 01:16:14;;;;;;;0.20;0.20;;;;;;;8.00;100.00;100880.56;2107931;28;20187;-71
2023/11/18 01:17:16;;;;;;;0.20;0.20;;;;;;;7.89;100.00;100858.56;2115826;28;20169;-71
2023/11/18 01:18:17;;;;;;;0.45;0.20;;;;;;;8.01;100.00;100879.38;2115740;28;20223;-71
2023/11/18 01:19:18;;;;;;;0.30;0.30;;;;;;;8.02;100.00;100890.00;2107995;28;20666;-71
2023/11/18 01:20:21;;;;;;;0.30;0.20;;;;;;;8.03;100.00;100897.09;2113394;28;20200;-71
2023/11/18 01:21:22;;;;;;;0.32;0.32;;;;;;;8.03;100.00;100888.00;2110281;28;20664;-71
2023/11/18 01:22:23;;;;;;;0.30;0.28;;;;;;;7.99;100.00;100874.25;2106219;28;20200;-71
2023/11/18 01:23:24;;;;;;;0.20;0.20;;;;;;;8.09;100.00;100889.16;2106611;28;20650;-71
2023/11/18 01:24:24;;;;;;;0.20;0.20;;;;;;;8.09;100.00;100887.16;2107778;28;20430;-71
2023/11/18 01:25:25;;;;;;;0.20;0.20;;;;;;;8.08;100.00;100888.34;2114628;28;20196;-71
2023/11/18 01:26:26;;;;;;;0.20;0.20;;;;;;;8.12;100.00;100891.88;2106934;28;20663;-71
2023/11/18 01:27:27;;;;;;;0.40;0.30;;;;;;;8.11;100.00;100909.59;2106927;28;20644;-71
2023/11/18 01:28:29;;;;;;;0.53;0.20;;;;;;;8.06;100.00;100882.47;2113160;28;20561;-71
2023/11/18 01:29:30;;;;;;;0.28;0.22;;;;;;;8.01;100.00;100888.44;2110172;28;20185;-71
2023/11/18 01:30:32;;;;;;;0.70;0.22;;;;;;;8.06;100.00;100890.75;2106675;28;20192;-71
2023/11/18 01:31:33;;;;;;;0.30;0.30;;;;;;;8.09;100.00;100889.16;2106947;28;20188;-71
2023/11/18 01:32:34;;;;;;;0.20;0.20;;;;;;;8.09;100.00;100887.16;2106862;28;20171;-71
2023/11/18 01:33:36;;;;;;;0.88;0.30;;;;;;;8.05;100.00;100891.16;2106720;28;20591;-71
2023/11/18 01:34:40;;;;;;;0.30;0.22;;;;;;;8.05;100.00;100888.41;2115102;28;20172;-71
2023/11/18 01:35:40;;;;;;;0.30;0.25;;;;;;;8.07;100.00;100888.75;2115256;28;20187;-71
2023/11/18 01:36:43;;;;;;;0.30;0.30;;;;;;;8.07;100.00;100886.00;2115388;28;20192;-70
2023/11/18 01:37:44;;;;;;;0.22;0.22;;;;;;;8.04;100.00;100889.59;2109270;27;20690;-70
2023/11/18 01:38:44;;;;;;;0.30;0.20;;;;;;;8.06;100.00;100893.53;2111169;28;20579;-71
2023/11/18 01:39:45;;;;;;;0.20;0.20;;;;;;;7.50;100.00;100813.22;2118906;27;20177;-71
2023/11/18 01:40:45;;;;;;;0.70;0.30;;;;;;;8.05;100.00;100878.13;2121167;27;20179;-71
2023/11/18 01:41:46;;;;;;;0.30;0.20;;;;;;;7.99;100.00;100879.75;2116390;27;20252;-71
2023/11/18 01:42:46;;;;;;;0.20;0.20;;;;;;;8.02;100.00;100892.75;2123010;27;20686;-71
2023/11/18 01:43:47;;;;;;;0.27;0.27;;;;;;;7.97;100.00;100895.16;2114303;27;20202;-71
2023/11/18 01:44:48;;;;;;;0.27;0.27;;;;;;;7.95;100.00;100894.81;2124608;27;20213;-71
2023/11/18 01:45:48;;;;;;;0.40;0.23;;;;;;;7.84;100.00;100905.16;2128415;27;20203;-71
2023/11/18 01:46:49;;;;;;;0.43;0.20;;;;;;;7.71;100.00;100880.03;2119647;27;20214;-70
2023/11/18 01:47:50;;;;;;;0.60;0.40;;;;;;;6.78;100.00;100758.25;2120462;27;20474;-70
2023/11/18 01:48:52;;;;;;;0.20;0.20;;;;;;;7.64;100.00;100898.59;2114961;28;20202;-71
2023/11/18 01:49:53;;;;;;;1.05;0.30;;;;;;;7.62;100.00;100900.97;2115128;28;20651;-71
2023/11/18 01:50:57;;;;;;;0.40;0.20;;;;;;;7.62;100.00;100893.50;2115080;28;20170;-71
2023/11/18 01:52:01;;;;;;;0.20;0.20;;;;;;;7.65;100.00;100892.69;2106964;28;20258;-71
2023/11/18 01:53:02;;;;;;;0.35;0.28;;;;;;;7.63;100.00;100888.78;2114131;28;20193;-71
2023/11/18 01:54:05;;;;;;;0.57;0.40;;;;;;;7.27;100.00;100835.84;2107692;28;20193;-71
2023/11/18 01:55:06;;;;;;;0.35;0.25;;;;;;;7.71;100.00;100884.75;2106237;28;20192;-71
2023/11/18 01:56:08;;;;;;;0.30;0.30;;;;;;;7.69;100.00;100876.09;2106718;28;20683;-71
2023/11/18 01:57:09;;;;;;;0.52;0.40;;;;;;;7.69;100.00;100879.63;2106694;28;20192;-71
2023/11/18 01:58:10;;;;;;;0.20;0.20;;;;;;;7.67;100.00;100870.19;2106617;28;20620;-71
2023/11/18 01:59:17;;;;;;;1.35;0.30;;;;;;;7.63;100.00;100863.94;2106677;28;20221;-71
2023/11/18 02:00:18;;;;;;;0.30;0.30;;;;;;;7.73;100.00;100865.81;2114860;28;20163;-71
2023/11/18 02:01:20;;;;;;;0.60;0.27;;;;;;;7.78;100.00;100868.13;2115012;28;20185;-71
2023/11/18 02:02:23;;;;;;;0.20;0.20;;;;;;;7.74;100.00;100862.66;2107262;28;20188;-71
2023/11/18 02:03:25;;;;;;;0.20;0.20;;;;;;;7.77;100.00;100866.56;2106582;28;20203;-71
2023/11/18 02:04:26;;;;;;;0.30;0.30;;;;;;;7.65;100.00;100859.59;2106642;28;20219;-71
2023/11/18 02:05:27;;;;;;;0.27;0.20;;;;;;;7.70;100.00;100855.59;2106663;28;20175;-70
2023/11/18 02:06:27;;;;;;;0.60;0.30;;;;;;;7.74;100.00;100865.41;2106453;28;20571;-71
2023/11/18 02:07:29;;;;;;;0.67;0.20;;;;;;;7.18;100.00;100783.13;2106436;28;20184;-71
2023/11/18 02:08:29;;;;;;;0.20;0.20;;;;;;;7.79;100.00;100870.47;2106518;28;20178;-71
2023/11/18 02:09:30;;;;;;;0.40;0.20;;;;;;;7.70;100.00;100880.44;2107038;28;20179;-71
2023/11/18 02:10:32;;;;;;;0.20;0.20;;;;;;;7.68;100.00;100874.53;2106884;28;20178;-71
2023/11/18 02:11:42;;;;;;;0.35;0.20;;;;;;;6.97;100.00;100802.59;2114094;28;20277;-71
2023/11/18 02:13:32;;;;;;;0.63;0.40;;;;;;;7.60;100.00;100881.28;2107752;28;20168;-70
2023/11/18 02:14:37;;;;;;;0.32;0.20;;;;;;;7.50;100.00;100882.94;2092502;28;20680;-71
2023/11/18 02:15:39;;;;;;;0.20;0.20;;;;;;;7.53;100.00;100884.13;2105737;28;20176;-71
2023/11/18 02:16:40;;;;;;;2.50;0.38;;;;;;;7.45;100.00;100896.38;2106578;28;20184;-71
2023/11/18 02:17:42;;;;;;;0.20;0.20;;;;;;;7.43;100.00;100888.50;2106650;28;20687;-71
2023/11/18 02:18:44;;;;;;;0.52;0.25;;;;;;;6.89;100.00;100808.53;2105663;28;20282;-71
2023/11/18 02:19:45;;;;;;;0.20;0.20;;;;;;;7.31;100.00;100885.44;2106745;28;20188;-71
2023/11/18 02:20:47;;;;;;;0.20;0.20;;;;;;;6.84;100.00;100808.97;2113494;28;20190;-71
2023/11/18 02:21:49;;;;;;;0.20;0.20;;;;;;;7.22;100.00;100872.09;2109065;28;20186;-71
2023/11/18 02:22:51;;;;;;;0.28;0.28;;;;;;;6.73;100.00;100799.97;2111255;28;20183;-71
2023/11/18 02:23:52;;;;;;;0.20;0.20;;;;;;;7.38;100.00;100890.91;2114103;28;20244;-71
2023/11/18 02:24:53;;;;;;;0.17;0.17;;;;;;;7.38;100.00;100888.94;2114961;28;20177;-71
2023/11/18 02:25:55;;;;;;;0.87;0.30;;;;;;;7.40;100.00;100894.84;2113786;28;20182;-70
2023/11/18 02:26:59;;;;;;;0.10;0.10;;;;;;;7.38;100.00;100894.44;2106010;28;20252;-71
2023/11/18 02:28:00;;;;;;;0.20;0.20;;;;;;;7.34;100.00;100890.91;2106238;28;20171;-71
2023/11/18 02:29:00;;;;;;;0.53;0.20;;;;;;;7.32;100.00;100895.25;2114290;28;20186;-71
2023/11/18 02:30:03;;;;;;;0.17;0.17;;;;;;;6.63;100.00;100778.78;2121514;27;20670;-71
2023/11/18 02:31:15;;;;;;;0.20;0.20;;;;;;;7.07;100.00;100856.84;2117896;27;20213;-71
2023/11/18 02:32:23;;;;;;;0.20;0.20;;;;;;;7.23;100.00;100883.94;2114904;28;20185;-71
2023/11/18 02:33:58;;;;;;;0.20;0.20;;;;;;;7.20;100.00;100887.47;2114594;28;20190;-71
2023/11/18 02:35:10;;;;;;;0.38;0.30;;;;;;;7.08;100.00;100887.94;2114482;28;20583;-71
2023/11/18 02:36:25;;;;;;;0.20;0.20;;;;;;;7.22;100.00;100899.66;2106482;28;20189;-70
2023/11/18 02:37:27;;;;;;;0.20;0.20;;;;;;;7.22;100.00;100901.66;2106330;28;20178;-71
2023/11/18 02:38:35;;;;;;;3.15;0.20;;;;;;;7.20;100.00;100893.78;2106620;28;20253;-71
2023/11/18 02:39:42;;;;;;;0.90;0.30;;;;;;;7.23;100.00;100901.22;2114578;28;20174;-71
2023/11/18 02:40:45;;;;;;;0.63;0.10;;;;;;;7.06;100.00;100902.13;2106142;28;20228;-71
2023/11/18 02:41:48;;;;;;;0.13;0.13;;;;;;;7.24;100.00;100913.06;2114101;28;20262;-71
2023/11/18 02:42:52;;;;;;;0.50;0.30;;;;;;;7.21;100.00;100928.41;2108158;28;20537;-71
2023/11/18 02:43:55;;;;;;;0.20;0.20;;;;;;;7.13;100.00;100915.09;2111724;28;20178;-70
2023/11/18 02:44:59;;;;;;;0.20;0.20;;;;;;;7.14;100.00;100922.16;2109926;28;20190;-70
2023/11/18 02:46:00;;;;;;;0.20;0.20;;;;;;;7.10;100.00;100918.63;2110567;28;20243;-70
2023/11/18 02:47:01;;;;;;;0.10;0.10;;;;;;;7.12;100.00;100921.78;2114759;27;20198;-71
2023/11/18 02:48:03;;;;;;;0.20;0.20;;;;;;;6.90;100.00;100876.22;2116439;27;20209;-71
2023/11/18 02:49:04;;;;;;;0.10;0.10;;;;;;;7.10;100.00;100935.97;2122791;27;20168;-71
2023/11/18 02:50:10;;;;;;;0.20;0.20;;;;;;;7.05;100.00;100919.84;2114275;28;20175;-71
2023/11/18 02:51:12;;;;;;;1.95;0.38;;;;;;;7.09;100.00;100928.09;2106039;28;20163;-71
2023/11/18 02:52:12;;;;;;;0.40;0.30;;;;;;;6.58;100.00;100859.06;2113527;28;20643;-71
2023/11/18 02:53:13;;;;;;;0.20;0.20;;;;;;;7.03;100.00;100921.44;2121034;27;20194;-70
2023/11/18 02:54:16;;;;;;;0.30;0.20;;;;;;;6.98;100.00;100919.88;2116853;27;20197;-71
2023/11/18 02:55:16;;;;;;;1.55;0.20;;;;;;;7.08;100.00;100927.28;2117533;27;20276;-71
2023/11/18 02:56:18;;;;;;;0.77;0.30;;;;;;;7.11;100.00;100915.47;2117718;27;20176;-71
2023/11/18 02:57:19;;;;;;;0.20;0.20;;;;;;;7.09;100.00;100911.56;2107782;28;20179;-70
2023/11/18 02:58:20;;;;;;;0.20;0.20;;;;;;;7.01;100.00;100926.53;2114400;28;20173;-71
2023/11/18 02:59:20;;;;;;;0.10;0.10;;;;;;;7.01;100.00;100916.31;2114806;28;20224;-71
2023/11/18 03:00:22;;;;;;;0.20;0.20;;;;;;;7.06;100.00;100920.63;2114550;28;20200;-71
2023/11/18 03:01:25;;;;;;;0.20;0.20;;;;;;;6.54;100.00;100845.31;2108439;28;20652;-71
2023/11/18 03:02:27;;;;;;;0.10;0.10;;;;;;;7.09;100.00;100914.31;2111217;28;20272;-71
2023/11/18 03:03:28;;;;;;;0.17;0.17;;;;;;;7.10;100.00;100924.16;2110016;28;20545;-71
2023/11/18 03:04:28;;;;;;;0.20;0.20;;;;;;;7.05;100.00;100908.81;2105300;28;20191;-71
2023/11/18 03:05:30;;;;;;;0.10;0.10;;;;;;;6.35;100.00;100811.97;2106078;28;20175;-71
2023/11/18 03:06:32;;;;;;;0.10;0.10;;;;;;;7.02;100.00;100934.41;2106474;28;20544;-71
2023/11/18 03:07:33;;;;;;;0.35;0.30;;;;;;;7.03;100.00;100921.44;2114799;28;20193;-71
2023/11/18 03:08:34;;;;;;;0.20;0.20;;;;;;;7.06;100.00;100923.38;2106504;28;20175;-71
2023/11/18 03:09:36;;;;;;;0.13;0.13;;;;;;;7.06;100.00;100917.84;2105368;28;20182;-71
2023/11/18 03:10:37;;;;;;;0.20;0.20;;;;;;;7.09;100.00;100914.31;2105314;28;20198;-71
2023/11/18 03:11:37;;;;;;;0.73;0.20;;;;;;;7.05;100.00;100911.59;2110795;28;20206;-71
2023/11/18 03:12:38;;;;;;;0.20;0.17;;;;;;;6.40;100.00;100823.34;2110984;27;20191;-70
2023/11/18 03:13:39;;;;;;;0.10;0.10;;;;;;;6.72;100.00;100864.53;2105556;28;20176;-70
2023/11/18 03:14:39;;;;;;;0.10;0.10;;;;;;;7.10;100.00;100922.19;2105919;28;20413;-71
2023/11/18 03:15:40;;;;;;;0.20;0.20;;;;;;;6.50;100.00;100827.22;2106049;28;20171;-71
2023/11/18 03:16:40;;;;;;;0.10;0.10;;;;;;;7.18;100.00;100934.72;2113797;28;20556;-71
2023/11/18 03:17:41;;;;;;;0.20;0.20;;;;;;;7.14;100.00;100933.97;2114525;28;20583;-71
2023/11/18 03:18:42;;;;;;;0.40;0.30;;;;;;;7.01;100.00;100919.06;2114471;28;20360;-71
2023/11/18 03:19:43;;;;;;;0.28;0.20;;;;;;;7.18;100.00;100939.47;2110459;28;20271;-71
2023/11/18 03:20:43;;;;;;;0.30;0.30;;;;;;;6.78;100.00;100891.25;2106140;28;20183;-71
2023/11/18 03:21:44;;;;;;;0.10;0.10;;;;;;;7.13;100.00;100940.66;2107615;28;20581;-71
2023/11/18 03:22:45;;;;;;;0.10;0.10;;;;;;;7.16;100.00;100937.13;2113817;28;20197;-71
2023/11/18 03:23:46;;;;;;;0.20;0.20;;;;;;;7.17;100.00;100937.91;2105480;28;20569;-70
2023/11/18 03:24:46;;;;;;;0.10;0.10;;;;;;;7.11;100.00;100923.75;2118303;27;20296;-70
2023/11/18 03:25:47;;;;;;;0.20;0.20;;;;;;;6.75;100.00;100881.03;2114112;28;20198;-71
2023/11/18 03:26:48;;;;;;;0.20;0.20;;;;;;;7.10;100.00;100926.91;2119664;27;20711;-70
2023/11/18 03:27:48;;;;;;;0.10;0.10;;;;;;;7.05;100.00;100924.56;2115616;27;20198;-71
2023/11/18 03:28:49;;;;;;;0.30;0.20;;;;;;;6.22;100.00;100806.13;2108278;28;20181;-71
2023/11/18 03:29:50;;;;;;;0.20;0.10;;;;;;;7.04;100.00;100928.50;2113128;28;20179;-70
2023/11/18 03:30:50;;;;;;;0.73;0.17;;;;;;;7.09;100.00;100933.59;2106021;28;20179;-70
2023/11/18 03:31:50;;;;;;;0.37;0.20;;;;;;;7.07;100.00;100936.00;2122347;27;20187;-70
2023/11/18 03:32:51;;;;;;;0.20;0.10;;;;;;;7.07;100.00;100939.50;2115581;27;20193;-71
2023/11/18 03:33:51;;;;;;;0.90;0.20;;;;;;;6.85;100.00;100898.69;2108079;28;20183;-71
2023/11/18 03:34:52;;;;;;;0.20;0.20;;;;;;;7.04;100.00;100929.31;2110496;28;20189;-70
2023/11/18 03:35:55;;;;;;;0.13;0.13;;;;;;;7.03;100.00;100924.19;2111631;28;20186;-70
2023/11/18 03:36:57;;;;;;;0.20;0.20;;;;;;;7.08;100.00;100930.06;2105791;28;20188;-70
2023/11/18 03:37:57;;;;;;;0.20;0.10;;;;;;;7.07;100.00;100931.25;2107437;28;20254;-70
2023/11/18 03:38:57;;;;;;;0.10;0.10;;;;;;;7.04;100.00;100936.78;2105913;28;20715;-71
2023/11/18 03:39:58;;;;;;;0.17;0.17;;;;;;;7.09;100.00;100939.13;2106247;28;20186;-71
2023/11/18 03:40:58;;;;;;;0.10;0.10;;;;;;;7.09;100.00;100939.13;2105762;28;20213;-71
2023/11/18 03:41:59;;;;;;;0.10;0.10;;;;;;;7.09;100.00;100934.41;2116991;27;20237;-71
2023/11/18 03:43:00;;;;;;;0.43;0.32;;;;;;;7.09;100.00;100941.88;2118329;27;20189;-71
2023/11/18 03:44:00;;;;;;;0.20;0.20;;;;;;;7.04;100.00;100940.31;2110444;28;20197;-71
2023/11/18 03:45:01;;;;;;;0.20;0.20;;;;;;;7.06;100.00;100940.69;2105775;28;20201;-71
2023/11/18 03:46:02;;;;;;;0.97;0.20;;;;;;;7.15;100.00;100943.03;2105940;28;20182;-70
2023/11/18 03:47:03;;;;;;;0.20;0.17;;;;;;;7.15;100.00;100941.06;2106009;28;20179;-70
2023/11/18 03:48:03;;;;;;;0.10;0.10;;;;;;;7.18;100.00;100947.75;2105438;28;20183;-70
2023/11/18 03:49:04;;;;;;;0.10;0.10;;;;;;;7.20;100.00;100940.63;2112424;28;20573;-71
2023/11/18 03:50:05;;;;;;;0.10;0.10;;;;;;;7.23;100.00;100934.31;2109173;28;20182;-71
2023/11/18 03:51:05;;;;;;;0.38;0.30;;;;;;;7.20;100.00;100940.63;2109844;28;20194;-70
2023/11/18 03:52:06;;;;;;;0.10;0.10;;;;;;;6.41;100.00;100804.88;2114274;28;20192;-70
2023/11/18 03:53:07;;;;;;;0.10;0.10;;;;;;;7.15;100.00;100932.78;2112620;28;20179;-70
2023/11/18 03:54:11;;;;;;;0.20;0.20;;;;;;;6.96;100.00;100905.72;2105065;28;20244;-70
2023/11/18 03:55:12;;;;;;;0.10;0.10;;;;;;;7.14;100.00;100939.50;2105564;28;20443;-71
2023/11/18 03:56:18;;;;;;;0.10;0.10;;;;;;;6.25;100.00;100797.06;2105898;28;20191;-71
2023/11/18 03:57:18;;;;;;;0.10;0.10;;;;;;;7.18;100.00;100937.47;2105075;28;20190;-71
2023/11/18 03:58:19;;;;;;;0.30;0.20;;;;;;;7.18;100.00;100934.72;2104982;28;20643;-71
2023/11/18 03:59:20;;;;;;;0.10;0.10;;;;;;;7.18;100.00;100936.72;2110612;28;20175;-70
2023/11/18 04:00:20;;;;;;;1.80;0.10;;;;;;;7.13;100.00;100942.66;2110672;28;20186;-70
2023/11/18 04:01:22;;;;;;;0.40;0.20;;;;;;;6.48;100.00;100837.84;2105819;28;20578;-71
2023/11/18 04:02:22;;;;;;;0.15;0.15;;;;;;;6.24;100.00;100803.75;2106542;28;20667;-70
2023/11/18 04:03:23;;;;;;;0.20;0.20;;;;;;;7.14;100.00;100942.25;2113931;28;20179;-71
2023/11/18 04:04:23;;;;;;;0.10;0.10;;;;;;;7.09;100.00;100937.16;2113475;28;20197;-70
2023/11/18 04:05:24;;;;;;;0.10;0.10;;;;;;;7.10;100.00;100938.72;2113834;28;20190;-70
2023/11/18 04:06:24;;;;;;;0.37;0.20;;;;;;;7.11;100.00;100931.22;2108680;28;20199;-71
2023/11/18 04:07:25;;;;;;;1.03;0.20;;;;;;;7.06;100.00;100935.19;2105663;28;20191;-71
2023/11/18 04:08:25;;;;;;;0.20;0.10;;;;;;;7.11;100.00;100934.78;2105844;28;20211;-70
2023/11/18 04:09:26;;;;;;;0.40;0.20;;;;;;;7.11;100.00;100937.53;2107485;28;20172;-71
2023/11/18 04:10:27;;;;;;;0.20;0.20;;;;;;;7.14;100.00;100933.97;2113239;28;20279;-71
2023/11/18 04:11:27;;;;;;;0.20;0.10;;;;;;;6.71;100.00;100846.44;2106093;28;20175;-71
2023/11/18 04:12:27;;;;;;;0.20;0.20;;;;;;;7.16;100.00;100923.31;2105746;28;20213;-71
2023/11/18 04:13:28;;;;;;;0.10;0.10;;;;;;;7.14;100.00;100917.44;2105344;28;20195;-70
2023/11/18 04:14:28;;;;;;;0.20;0.20;;;;;;;6.40;100.00;100806.06;2110334;28;20190;-70
2023/11/18 04:15:29;;;;;;;0.10;0.10;;;;;;;7.11;100.00;100912.72;2110083;28;20192;-70
2023/11/18 04:16:30;;;;;;;0.40;0.40;;;;;;;7.14;100.00;100914.69;2105161;28;20579;-71
2023/11/18 04:17:31;;;;;;;0.30;0.20;;;;;;;7.19;100.00;100917.03;2105684;28;20216;-71
2023/11/18 04:18:32;;;;;;;0.43;0.22;;;;;;;7.20;100.00;100915.03;2105353;28;20169;-71
2023/11/18 04:19:34;;;;;;;0.10;0.10;;;;;;;7.15;100.00;100910.75;2105801;28;20205;-71
2023/11/18 04:20:34;;;;;;;0.17;0.15;;;;;;;7.18;100.00;100918.19;2105434;28;20189;-70
2023/11/18 04:21:35;;;;;;;0.63;0.40;;;;;;;7.20;100.00;100926.84;2112174;28;20182;-70
2023/11/18 04:22:38;;;;;;;0.10;0.10;;;;;;;7.26;100.00;100929.97;2109039;28;20389;-70
2023/11/18 04:23:40;;;;;;;0.10;0.10;;;;;;;6.81;100.00;100853.84;2104781;28;20205;-71
2023/11/18 04:24:43;;;;;;;0.38;0.20;;;;;;;7.34;100.00;100929.50;2108617;28;20631;-71
2023/11/18 04:25:44;;;;;;;0.20;0.20;;;;;;;7.22;100.00;100916.22;2113545;27;20174;-71
2023/11/18 04:26:45;;;;;;;0.40;0.40;;;;;;;7.31;100.00;100927.56;2112872;28;20285;-71
2023/11/18 04:27:45;;;;;;;0.40;0.17;;;;;;;6.84;100.00;100853.84;2105962;28;20672;-71
2023/11/18 04:28:45;;;;;;;0.20;0.20;;;;;;;7.31;100.00;100913.00;2105540;28;20188;-71
2023/11/18 04:29:46;;;;;;;0.10;0.10;;;;;;;7.29;100.00;100918.16;2105596;28;20216;-71
2023/11/18 04:30:46;;;;;;;0.57;0.20;;;;;;;7.31;100.00;100905.53;2110559;28;20195;-70
2023/11/18 04:31:47;;;;;;;0.27;0.20;;;;;;;7.29;100.00;100905.13;2109733;28;20221;-71
2023/11/18 04:32:47;;;;;;;0.20;0.20;;;;;;;7.33;100.00;100913.41;2105537;28;20196;-70
2023/11/18 04:33:48;;;;;;;0.10;0.10;;;;;;;6.54;100.00;100789.44;2104651;28;20178;-70
2023/11/18 04:34:51;;;;;;;0.33;0.20;;;;;;;7.34;100.00;100907.47;2105528;28;20290;-70
2023/11/18 04:35:51;;;;;;;0.20;0.20;;;;;;;7.04;100.00;100878.91;2105590;28;20217;-71
2023/11/18 04:36:52;;;;;;;0.43;0.20;;;;;;;7.35;100.00;100914.56;2105466;28;20188;-70
2023/11/18 04:37:52;;;;;;;0.10;0.10;;;;;;;7.35;100.00;100913.78;2105486;28;20372;-71
2023/11/18 04:38:53;;;;;;;0.10;0.10;;;;;;;7.39;100.00;100906.28;2105361;28;20215;-70
2023/11/18 04:39:55;;;;;;;0.20;0.20;;;;;;;7.42;100.00;100911.75;2105597;28;20194;-70
2023/11/18 04:40:55;;;;;;;0.28;0.20;;;;;;;7.45;100.00;100916.47;2108083;28;21594;-70
2023/11/18 04:41:56;;;;;;;0.20;0.20;;;;;;;7.49;100.00;100903.41;2113653;28;20588;-70
2023/11/18 04:42:57;;;;;;;0.30;0.20;;;;;;;7.50;100.00;100913.28;2113713;28;20186;-71
2023/11/18 04:43:57;;;;;;;0.10;0.10;;;;;;;7.48;100.00;100912.13;2113109;28;20453;-70
2023/11/18 04:44:57;;;;;;;0.20;0.20;;;;;;;7.43;100.00;100901.53;2113523;28;20187;-71
2023/11/18 04:45:59;;;;;;;0.20;0.20;;;;;;;7.45;100.00;100913.72;2107718;28;20240;-71